Time;durP1;ratioP1;P1;durP2;ratioP2;P2;SDS_P1;SDS_P2;PMS_P1;PMS_P2;Temp;Humidity;BMP_temperature;BMP_pressure;BME280_temperature;BME280_humidity;BME280_pressure;Samples;Min_cycle;Max_cycle;Signal;HPM_P1;HPM_P2
2023/05/08 00:00:40;;;;;;;0.88;0.45;;;9.70;99.90;;;;;;5032334;28;20028;-78
2023/05/08 00:03:10;;;;;;;0.20;0.20;;;9.70;99.90;;;;;;5033902;28;20028;-78
2023/05/08 00:05:36;;;;;;;0.00;0.00;;;9.80;99.90;;;;;;5035257;28;20029;-78
2023/05/08 00:08:01;;;;;;;0.00;0.00;;;9.80;99.90;;;;;;5030916;28;20018;-78
2023/05/08 00:10:29;;;;;;;0.00;0.00;;;9.80;99.90;;;;;;5031171;28;21257;-77
2023/05/08 00:12:55;;;;;;;0.00;0.00;;;9.90;99.90;;;;;;5032062;28;20033;-78
2023/05/08 00:15:26;;;;;;;0.00;0.00;;;9.90;99.90;;;;;;5033469;28;20025;-78
2023/05/08 00:17:52;;;;;;;0.00;0.00;;;9.90;99.90;;;;;;5036395;28;20086;-78
2023/05/08 00:20:17;;;;;;;0.43;0.43;;;9.70;99.90;;;;;;5054565;28;20021;-78
2023/05/08 00:22:43;;;;;;;0.00;0.00;;;9.80;99.90;;;;;;5041445;28;20036;-78
2023/05/08 00:25:09;;;;;;;0.00;0.00;;;9.70;99.90;;;;;;5053268;28;20021;-77
2023/05/08 00:27:37;;;;;;;;;;;9.60;99.90;;;;;;5033273;28;20021;-78
2023/05/08 00:30:05;;;;;;;0.28;0.20;;;9.50;99.90;;;;;;5037919;28;20281;-78
2023/05/08 00:32:30;;;;;;;0.00;0.00;;;9.40;99.90;;;;;;5038406;28;20064;-78
2023/05/08 00:34:56;;;;;;;0.00;0.00;;;9.40;99.90;;;;;;5032315;28;20695;-78
2023/05/08 00:37:24;;;;;;;0.00;0.00;;;9.50;99.90;;;;;;5036810;28;20041;-77
2023/05/08 00:39:52;;;;;;;0.00;0.00;;;9.60;99.90;;;;;;5035436;28;20029;-78
2023/05/08 00:42:19;;;;;;;0.00;0.00;;;9.60;99.90;;;;;;5039554;28;20027;-78
2023/05/08 00:44:45;;;;;;;;;;;9.50;99.90;;;;;;5030224;28;20553;-78
2023/05/08 00:47:13;;;;;;;0.00;0.00;;;9.60;99.90;;;;;;5039044;28;19909;-78
2023/05/08 00:49:39;;;;;;;0.00;0.00;;;9.50;99.90;;;;;;5045430;28;20044;-78
2023/05/08 00:52:08;;;;;;;0.00;0.00;;;9.30;99.90;;;;;;5037457;28;20031;-78
2023/05/08 00:54:36;;;;;;;0.00;0.00;;;9.40;99.90;;;;;;5045229;28;20103;-78
2023/05/08 00:57:03;;;;;;;0.00;0.00;;;9.40;99.90;;;;;;5039451;28;20021;-78
2023/05/08 00:59:28;;;;;;;0.10;0.10;;;9.20;99.90;;;;;;5044640;28;21715;-78
2023/05/08 01:02:02;;;;;;;0.00;0.00;;;9.00;99.90;;;;;;5039457;28;20033;-78
2023/05/08 01:04:32;;;;;;;0.00;0.00;;;9.00;99.90;;;;;;5051933;28;20058;-78
2023/05/08 01:07:03;;;;;;;0.00;0.00;;;9.00;99.90;;;;;;5035197;28;20063;-78
2023/05/08 01:09:32;;;;;;;0.00;0.00;;;9.00;99.90;;;;;;5051289;28;20017;-78
2023/05/08 01:15:16;;;;;;;0.00;0.00;;;9.30;99.90;;;;;;5030898;28;20052;-78
2023/05/08 01:18:20;;;;;;;2.47;0.55;;;9.40;99.90;;;;;;5040394;28;20059;-78
2023/05/08 01:21:04;;;;;;;0.00;0.00;;;9.50;99.90;;;;;;5037683;28;20025;-78
2023/05/08 01:23:57;;;;;;;0.00;0.00;;;9.40;99.90;;;;;;5039631;28;20026;-78
2023/05/08 01:26:53;;;;;;;0.00;0.00;;;9.50;99.90;;;;;;5038352;28;20023;-78
2023/05/08 01:29:56;;;;;;;0.15;0.15;;;9.60;99.90;;;;;;5051179;28;20735;-78
2023/05/08 01:32:37;;;;;;;0.00;0.00;;;9.60;99.90;;;;;;5036264;28;20032;-77
2023/05/08 01:35:28;;;;;;;0.00;0.00;;;9.50;99.90;;;;;;5040001;28;20021;-78
2023/05/08 01:38:21;;;;;;;0.00;0.00;;;9.30;99.90;;;;;;5039165;28;20048;-78
2023/05/08 01:41:16;;;;;;;0.00;0.00;;;9.30;99.90;;;;;;5037553;28;20051;-78
2023/05/08 01:44:15;;;;;;;0.00;0.00;;;9.40;99.90;;;;;;5028014;28;20087;-78
2023/05/08 01:46:53;;;;;;;0.00;0.00;;;9.30;99.90;;;;;;5033079;28;20022;-77
2023/05/08 01:49:54;;;;;;;0.00;0.00;;;9.40;99.90;;;;;;5040534;28;20157;-78
2023/05/08 01:52:30;;;;;;;0.00;0.00;;;9.40;99.90;;;;;;5030473;28;20170;-78
2023/05/08 01:55:11;;;;;;;0.00;0.00;;;9.50;99.90;;;;;;5034699;28;20063;-78
2023/05/08 01:57:47;;;;;;;0.00;0.00;;;9.50;99.90;;;;;;5041435;28;20032;-78
2023/05/08 02:00:18;;;;;;;0.03;0.03;;;9.50;99.90;;;;;;5035927;28;20021;-78
2023/05/08 02:02:48;;;;;;;0.00;0.00;;;9.50;99.90;;;;;;5043083;28;20030;-78
2023/05/08 02:05:15;;;;;;;0.00;0.00;;;9.40;99.90;;;;;;5036982;28;20056;-77
2023/05/08 02:07:46;;;;;;;0.00;0.00;;;9.30;99.90;;;;;;5036710;28;20392;-78
2023/05/08 02:10:15;;;;;;;0.00;0.00;;;9.30;99.90;;;;;;5034839;28;20044;-78
2023/05/08 02:12:44;;;;;;;0.00;0.00;;;9.40;99.90;;;;;;5046426;28;20021;-78
2023/05/08 02:15:20;;;;;;;0.00;0.00;;;9.50;99.90;;;;;;5047659;28;20121;-78
2023/05/08 02:17:48;;;;;;;0.25;0.10;;;9.40;99.90;;;;;;5035394;28;20086;-78
2023/05/08 02:20:21;;;;;;;0.00;0.00;;;9.40;99.90;;;;;;5034404;28;21575;-78
2023/05/08 02:22:50;;;;;;;0.10;0.10;;;9.30;99.90;;;;;;5037158;28;20033;-78
2023/05/08 02:25:17;;;;;;;0.10;0.10;;;9.40;99.90;;;;;;5046851;28;20025;-78
2023/05/08 02:27:46;;;;;;;0.00;0.00;;;9.40;99.90;;;;;;5049342;28;20020;-78
2023/05/08 02:30:16;;;;;;;0.00;0.00;;;9.40;99.90;;;;;;5035664;28;20056;-78
2023/05/08 02:32:47;;;;;;;2.10;0.30;;;9.40;99.90;;;;;;5034801;28;20029;-78
2023/05/08 02:35:16;;;;;;;0.80;0.45;;;9.30;99.90;;;;;;5034275;28;20063;-78
2023/05/08 02:37:56;;;;;;;0.30;0.20;;;9.20;99.90;;;;;;5033009;28;20038;-78
2023/05/08 02:40:28;;;;;;;0.45;0.10;;;9.10;99.90;;;;;;5031715;28;20053;-78
2023/05/08 02:43:01;;;;;;;0.00;0.00;;;9.10;99.90;;;;;;5031207;28;20409;-78
2023/05/08 02:45:35;;;;;;;0.00;0.00;;;9.20;99.90;;;;;;5042337;28;20027;-77
2023/05/08 02:48:27;;;;;;;0.00;0.00;;;9.20;99.90;;;;;;5035526;28;20041;-78
2023/05/08 02:51:17;;;;;;;0.00;0.00;;;9.10;99.90;;;;;;5041008;28;20067;-78
2023/05/08 02:53:54;;;;;;;0.00;0.00;;;9.20;99.90;;;;;;5056664;28;20132;-78
2023/05/08 02:56:55;;;;;;;0.00;0.00;;;9.10;99.90;;;;;;5033893;28;20540;-78
2023/05/08 02:59:30;;;;;;;0.00;0.00;;;9.10;99.90;;;;;;5040562;28;20074;-78
2023/05/08 03:02:16;;;;;;;0.00;0.00;;;9.20;99.90;;;;;;5041880;28;20029;-79
2023/05/08 03:04:58;;;;;;;0.03;0.03;;;9.30;99.90;;;;;;5038336;28;20025;-78
2023/05/08 03:07:29;;;;;;;0.00;0.00;;;9.30;99.90;;;;;;5033972;28;20016;-78
2023/05/08 03:10:00;;;;;;;0.00;0.00;;;9.20;99.90;;;;;;5036500;28;20756;-77
2023/05/08 03:12:29;;;;;;;0.00;0.00;;;9.30;99.90;;;;;;5037762;28;20103;-78
2023/05/08 03:15:25;;;;;;;0.00;0.00;;;9.30;99.90;;;;;;5037320;28;20620;-77
2023/05/08 03:18:20;;;;;;;0.00;0.00;;;9.30;99.90;;;;;;5034986;28;20586;-78
2023/05/08 03:20:52;;;;;;;0.00;0.00;;;9.30;99.90;;;;;;5044476;28;20563;-77
2023/05/08 03:23:26;;;;;;;0.03;0.03;;;9.30;99.90;;;;;;5039712;28;20409;-78
2023/05/08 03:25:56;;;;;;;0.00;0.00;;;9.30;99.90;;;;;;5051828;28;20021;-77
2023/05/08 03:28:25;;;;;;;0.00;0.00;;;9.30;99.90;;;;;;5040673;28;20114;-77
2023/05/08 03:30:55;;;;;;;0.00;0.00;;;9.30;99.90;;;;;;5039668;28;20035;-76
2023/05/08 03:33:23;;;;;;;0.20;0.20;;;9.20;99.90;;;;;;5053422;28;20025;-76
2023/05/08 03:35:49;;;;;;;0.00;0.00;;;9.30;99.90;;;;;;5037832;28;20025;-76
2023/05/08 03:38:16;;;;;;;0.00;0.00;;;9.20;99.90;;;;;;5048981;28;20029;-77
2023/05/08 03:40:42;;;;;;;0.00;0.00;;;9.30;99.90;;;;;;5035611;28;21262;-77
2023/05/08 03:43:10;;;;;;;0.00;0.00;;;9.20;99.90;;;;;;5044880;28;20037;-77
2023/05/08 03:45:39;;;;;;;0.00;0.00;;;9.20;99.90;;;;;;5044278;28;20103;-76
2023/05/08 03:48:07;;;;;;;0.00;0.00;;;9.20;99.90;;;;;;5034195;28;20432;-77
2023/05/08 03:50:37;;;;;;;0.00;0.00;;;9.00;99.90;;;;;;5041359;28;20025;-76
2023/05/08 03:53:04;;;;;;;0.00;0.00;;;9.00;99.90;;;;;;5036703;28;20167;-77
2023/05/08 03:55:32;;;;;;;0.00;0.00;;;9.00;99.90;;;;;;5040004;28;20658;-77
2023/05/08 03:58:12;;;;;;;0.05;0.05;;;9.10;99.90;;;;;;5041771;28;20474;-77
2023/05/08 04:01:10;;;;;;;0.00;0.00;;;9.20;99.90;;;;;;5043470;28;20017;-77
2023/05/08 04:04:01;;;;;;;0.28;0.28;;;9.20;99.90;;;;;;5039446;28;20022;-77
2023/05/08 04:07:16;;;;;;;0.00;0.00;;;9.30;99.90;;;;;;5033899;28;20031;-77
2023/05/08 04:09:50;;;;;;;0.00;0.00;;;9.30;99.90;;;;;;4932765;28;20024;-77
2023/05/08 04:12:38;;;;;;;0.00;0.00;;;9.40;99.90;;;;;;4936735;28;20050;-77
2023/05/08 04:15:08;;;;;;;0.00;0.00;;;9.60;99.90;;;;;;5010860;28;20026;-77
2023/05/08 04:17:52;;;;;;;0.00;0.00;;;9.60;99.90;;;;;;5042694;28;20030;-77
2023/05/08 04:20:29;;;;;;;0.00;0.00;;;9.70;99.90;;;;;;5031786;28;20051;-76
2023/05/08 04:23:03;;;;;;;0.20;0.15;;;9.80;99.90;;;;;;5038285;28;20029;-76
2023/05/08 04:25:43;;;;;;;0.00;0.00;;;9.90;99.90;;;;;;5034784;28;20782;-77
2023/05/08 04:28:10;;;;;;;0.00;0.00;;;10.00;99.90;;;;;;5055667;28;20575;-77
2023/05/08 04:30:38;;;;;;;0.00;0.00;;;10.10;99.90;;;;;;5042838;28;20892;-76
2023/05/08 04:33:10;;;;;;;0.00;0.00;;;10.30;99.90;;;;;;5044703;28;20025;-77
2023/05/08 04:35:37;;;;;;;0.22;0.22;;;10.20;99.90;;;;;;5037759;28;20031;-76
2023/05/08 04:38:08;;;;;;;;;;;10.20;99.90;;;;;;5037949;28;20148;-77
2023/05/08 04:40:34;;;;;;;0.05;0.05;;;10.50;99.90;;;;;;5046947;28;19959;-77
2023/05/08 04:43:00;;;;;;;0.00;0.00;;;10.80;99.90;;;;;;5052120;28;20041;-76
2023/05/08 04:45:27;;;;;;;0.00;0.00;;;11.00;99.90;;;;;;5054325;28;20267;-76
2023/05/08 04:47:54;;;;;;;0.05;0.05;;;11.10;99.90;;;;;;5043683;28;20019;-77
2023/05/08 04:50:20;;;;;;;;;;;11.20;99.90;;;;;;5055925;28;20421;-76
2023/05/08 04:52:48;;;;;;;0.00;0.00;;;11.40;99.90;;;;;;5047647;28;20271;-76
2023/05/08 04:55:14;;;;;;;0.00;0.00;;;11.60;99.90;;;;;;5053378;28;20032;-78
2023/05/08 04:57:44;;;;;;;0.10;0.10;;;11.90;99.90;;;;;;5057240;28;20017;-76
2023/05/08 05:00:10;;;;;;;0.00;0.00;;;12.10;99.90;;;;;;5042782;28;20021;-77
2023/05/08 05:02:40;;;;;;;0.00;0.00;;;12.30;99.90;;;;;;5043720;28;20383;-77
2023/05/08 05:05:07;;;;;;;0.05;0.05;;;12.60;99.90;;;;;;5039498;28;20047;-77
2023/05/08 05:07:34;;;;;;;0.00;0.00;;;12.20;99.90;;;;;;5054508;28;20033;-77
2023/05/08 05:09:59;;;;;;;;;;;12.50;99.90;;;;;;5032337;28;20671;-77
2023/05/08 05:12:26;;;;;;;0.00;0.00;;;12.70;99.90;;;;;;5038805;28;19926;-77
2023/05/08 05:14:52;;;;;;;;;;;13.10;99.90;;;;;;5041685;28;20021;-77
2023/05/08 05:17:19;;;;;;;0.00;0.00;;;13.40;99.90;;;;;;5037297;28;19920;-77
2023/05/08 05:19:50;;;;;;;0.00;0.00;;;13.40;99.80;;;;;;5041894;28;20106;-77
2023/05/08 05:22:23;;;;;;;0.00;0.00;;;14.00;99.20;;;;;;5034208;28;20029;-75
2023/05/08 05:24:48;;;;;;;0.00;0.00;;;14.10;98.10;;;;;;5039072;28;20021;-74
2023/05/08 05:27:14;;;;;;;0.00;0.00;;;14.20;97.50;;;;;;5055630;28;20079;-75
2023/05/08 05:29:42;;;;;;;0.00;0.00;;;13.50;98.20;;;;;;5044371;28;20025;-76
2023/05/08 05:32:10;;;;;;;0.00;0.00;;;13.00;99.30;;;;;;5045903;28;20017;-76
2023/05/08 05:34:39;;;;;;;0.10;0.10;;;12.50;99.90;;;;;;5027782;28;20044;-76
2023/05/08 05:37:05;;;;;;;0.00;0.00;;;12.20;99.90;;;;;;5038494;28;20025;-77
2023/05/08 05:39:32;;;;;;;0.00;0.00;;;12.80;99.90;;;;;;5049303;28;20056;-76
2023/05/08 05:42:00;;;;;;;0.00;0.00;;;12.90;99.90;;;;;;5035896;28;20048;-77
2023/05/08 05:44:27;;;;;;;0.00;0.00;;;13.20;99.50;;;;;;5037947;28;20044;-76
2023/05/08 05:47:04;;;;;;;0.00;0.00;;;13.40;99.40;;;;;;5036114;28;20021;-77
2023/05/08 05:49:31;;;;;;;0.00;0.00;;;13.40;98.70;;;;;;5038570;28;20026;-77
2023/05/08 05:52:08;;;;;;;;;;;13.50;99.00;;;;;;5043169;28;20036;-77
2023/05/08 05:54:40;;;;;;;0.00;0.00;;;14.50;98.00;;;;;;5036539;28;19905;-77
2023/05/08 05:57:08;;;;;;;0.00;0.00;;;14.90;95.90;;;;;;5040596;28;20112;-76
2023/05/08 05:59:37;;;;;;;0.00;0.00;;;15.40;95.40;;;;;;5059920;28;20021;-76
2023/05/08 06:02:17;;;;;;;0.00;0.00;;;16.50;94.10;;;;;;5042168;28;20409;-77
2023/05/08 06:04:43;;;;;;;0.00;0.00;;;18.00;90.70;;;;;;5033081;28;20029;-77
2023/05/08 06:07:13;;;;;;;0.00;0.00;;;19.00;83.80;;;;;;5058067;28;20020;-77
2023/05/08 06:09:40;;;;;;;0.00;0.00;;;19.90;79.20;;;;;;5036213;28;20575;-75
2023/05/08 06:12:07;;;;;;;0.00;0.00;;;21.20;73.70;;;;;;5049443;28;20017;-75
2023/05/08 06:14:39;;;;;;;0.00;0.00;;;21.20;68.20;;;;;;5049386;28;20018;-75
2023/05/08 06:17:07;;;;;;;0.00;0.00;;;20.60;70.00;;;;;;5036500;28;20030;-75
2023/05/08 06:19:33;;;;;;;0.00;0.00;;;21.00;66.80;;;;;;5039016;28;20063;-75
2023/05/08 06:21:59;;;;;;;0.00;0.00;;;21.20;66.20;;;;;;5045831;28;20036;-75
2023/05/08 06:24:28;;;;;;;0.20;0.20;;;21.60;65.40;;;;;;5049447;28;20066;-75
2023/05/08 06:26:59;;;;;;;0.00;0.00;;;19.10;68.20;;;;;;5052097;28;20032;-75
2023/05/08 06:29:32;;;;;;;0.00;0.00;;;20.00;68.90;;;;;;5039786;28;20038;-75
2023/05/08 06:32:01;;;;;;;0.00;0.00;;;20.50;68.50;;;;;;5038302;28;20024;-75
2023/05/08 06:34:31;;;;;;;0.00;0.00;;;21.00;66.60;;;;;;5032967;28;20056;-75
2023/05/08 06:37:00;;;;;;;0.00;0.00;;;21.60;63.80;;;;;;5031420;28;20033;-75
2023/05/08 06:39:26;;;;;;;0.00;0.00;;;20.40;64.90;;;;;;5060315;28;20382;-75
2023/05/08 06:41:52;;;;;;;0.00;0.00;;;20.10;66.20;;;;;;5032772;28;20029;-74
2023/05/08 06:44:20;;;;;;;0.00;0.00;;;19.90;65.40;;;;;;5051156;28;20036;-77
2023/05/08 06:46:48;;;;;;;0.00;0.00;;;18.50;68.60;;;;;;5040414;28;20486;-77
2023/05/08 06:49:24;;;;;;;0.30;0.30;;;18.50;68.50;;;;;;5037657;28;20029;-77
2023/05/08 06:51:54;;;;;;;0.00;0.00;;;19.40;67.80;;;;;;5040787;28;20029;-78
2023/05/08 06:54:24;;;;;;;0.00;0.00;;;19.60;66.80;;;;;;5038156;28;20055;-77
2023/05/08 06:56:53;;;;;;;0.20;0.10;;;19.00;68.30;;;;;;5038785;28;20025;-77
2023/05/08 06:59:22;;;;;;;0.00;0.00;;;18.30;70.10;;;;;;5038899;28;20026;-76
2023/05/08 07:01:49;;;;;;;0.00;0.00;;;17.90;71.40;;;;;;5045847;28;20016;-77
2023/05/08 07:04:18;;;;;;;0.80;0.13;;;19.00;70.20;;;;;;5035646;28;20074;-77
2023/05/08 07:06:48;;;;;;;0.00;0.00;;;19.20;68.60;;;;;;5050942;28;20068;-77
2023/05/08 07:09:16;;;;;;;0.00;0.00;;;18.80;70.00;;;;;;5036751;28;20018;-77
2023/05/08 07:11:41;;;;;;;0.00;0.00;;;18.40;70.50;;;;;;5045065;28;20522;-77
2023/05/08 07:14:07;;;;;;;0.00;0.00;;;18.90;70.50;;;;;;5039013;28;20029;-75
2023/05/08 07:16:34;;;;;;;0.00;0.00;;;21.20;67.20;;;;;;5038961;28;20025;-75
2023/05/08 07:19:08;;;;;;;0.00;0.00;;;23.80;62.20;;;;;;5037638;28;20045;-75
2023/05/08 07:21:34;;;;;;;0.00;0.00;;;23.50;59.30;;;;;;5039122;28;20025;-76
2023/05/08 07:24:01;;;;;;;0.05;0.05;;;22.10;61.40;;;;;;5049863;28;20057;-75
2023/05/08 07:26:26;;;;;;;0.17;0.17;;;22.10;61.80;;;;;;5032888;28;20025;-75
2023/05/08 07:28:53;;;;;;;0.00;0.00;;;23.20;60.30;;;;;;5037068;28;20074;-74
2023/05/08 07:31:20;;;;;;;0.00;0.00;;;22.30;59.50;;;;;;5041425;28;20063;-75
2023/05/08 07:33:53;;;;;;;0.00;0.00;;;21.80;60.90;;;;;;5050827;28;20044;-77
2023/05/08 07:36:21;;;;;;;0.00;0.00;;;20.50;62.60;;;;;;5031930;28;20056;-77
2023/05/08 07:38:57;;;;;;;0.00;0.00;;;20.00;63.80;;;;;;5034090;28;20028;-77
2023/05/08 07:41:25;;;;;;;0.00;0.00;;;21.10;63.10;;;;;;5033958;28;20028;-77
2023/05/08 07:43:58;;;;;;;0.00;0.00;;;21.70;61.30;;;;;;5025206;28;20355;-77
2023/05/08 07:46:26;;;;;;;0.00;0.00;;;20.40;62.10;;;;;;5033920;28;20018;-77
2023/05/08 07:48:57;;;;;;;0.00;0.00;;;19.70;64.00;;;;;;5034388;28;20056;-77
2023/05/08 07:51:31;;;;;;;0.03;0.03;;;19.40;65.20;;;;;;5033239;28;20103;-77
2023/05/08 07:53:57;;;;;;;0.00;0.00;;;19.20;65.50;;;;;;5036403;28;20044;-78
2023/05/08 07:56:38;;;;;;;0.00;0.00;;;19.20;65.80;;;;;;5034432;28;20024;-77
2023/05/08 07:59:04;;;;;;;0.00;0.00;;;18.80;65.70;;;;;;5035710;28;20212;-77
2023/05/08 08:01:31;;;;;;;0.00;0.00;;;18.60;66.50;;;;;;5039477;28;20029;-77
2023/05/08 08:04:01;;;;;;;0.00;0.00;;;18.40;67.20;;;;;;5039505;28;20061;-77
2023/05/08 08:06:30;;;;;;;0.15;0.15;;;18.90;66.80;;;;;;5058107;28;20030;-77
2023/05/08 08:09:04;;;;;;;0.05;0.05;;;18.80;66.40;;;;;;5039682;28;20474;-77
2023/05/08 08:11:31;;;;;;;0.15;0.00;;;18.60;66.40;;;;;;5040285;28;20060;-77
2023/05/08 08:13:58;;;;;;;0.00;0.00;;;18.60;67.00;;;;;;5036124;28;20671;-77
2023/05/08 08:16:44;;;;;;;0.00;0.00;;;17.80;68.60;;;;;;5041503;28;20662;-74
2023/05/08 08:19:12;;;;;;;0.98;0.38;;;16.80;71.10;;;;;;5040508;28;20880;-74
2023/05/08 08:21:49;;;;;;;0.00;0.00;;;16.60;72.10;;;;;;5055107;28;20032;-74
2023/05/08 08:24:17;;;;;;;0.00;0.00;;;17.10;71.50;;;;;;5052116;28;21062;-75
2023/05/08 08:26:42;;;;;;;0.08;0.08;;;16.40;71.60;;;;;;5038953;28;20030;-75
2023/05/08 08:29:16;;;;;;;0.03;0.03;;;17.30;71.10;;;;;;5038625;28;20466;-77
2023/05/08 08:31:44;;;;;;;0.00;0.00;;;17.80;70.20;;;;;;5040990;28;20267;-77
2023/05/08 08:34:12;;;;;;;0.00;0.00;;;19.50;69.00;;;;;;5048971;28;20510;-77
2023/05/08 08:36:38;;;;;;;0.03;0.03;;;20.20;66.10;;;;;;5060483;28;20406;-75
2023/05/08 08:39:10;;;;;;;0.00;0.00;;;22.70;63.30;;;;;;5041360;28;20026;-75
2023/05/08 08:41:39;;;;;;;0.03;0.03;;;23.90;58.00;;;;;;5044421;28;20036;-75
2023/05/08 08:44:07;;;;;;;0.32;0.32;;;22.20;59.80;;;;;;5032015;28;20435;-77
2023/05/08 08:46:35;;;;;;;0.00;0.00;;;20.40;64.20;;;;;;5040825;28;20021;-77
2023/05/08 08:49:03;;;;;;;0.00;0.00;;;21.90;62.30;;;;;;5048144;28;20772;-77
2023/05/08 08:51:53;;;;;;;0.00;0.00;;;21.80;61.80;;;;;;5035918;28;20025;-75
2023/05/08 08:54:29;;;;;;;0.00;0.00;;;21.60;61.30;;;;;;5038693;28;20489;-76
2023/05/08 08:56:59;;;;;;;0.32;0.08;;;21.90;61.30;;;;;;5035571;28;20086;-76
2023/05/08 08:59:27;;;;;;;0.00;0.00;;;22.00;61.40;;;;;;5043677;28;20086;-77
2023/05/08 09:01:57;;;;;;;0.00;0.00;;;20.20;63.40;;;;;;5047558;28;20024;-77
2023/05/08 09:04:26;;;;;;;0.00;0.00;;;20.20;64.90;;;;;;5033423;28;20056;-75
2023/05/08 09:06:52;;;;;;;0.00;0.00;;;21.40;63.50;;;;;;5035479;28;20117;-75
2023/05/08 09:09:22;;;;;;;0.00;0.00;;;22.50;61.40;;;;;;5035290;28;20087;-76
2023/05/08 09:11:48;;;;;;;0.00;0.00;;;21.70;61.90;;;;;;5037757;28;20024;-76
2023/05/08 09:14:16;;;;;;;0.30;0.10;;;21.80;60.90;;;;;;5036784;28;20105;-75
2023/05/08 09:16:44;;;;;;;0.10;0.10;;;21.10;62.40;;;;;;5030772;28;20396;-75
2023/05/08 09:19:15;;;;;;;0.00;0.00;;;20.80;63.50;;;;;;5056198;28;20025;-75
2023/05/08 09:21:47;;;;;;;0.00;0.00;;;21.80;62.40;;;;;;5039656;28;20020;-75
2023/05/08 09:24:14;;;;;;;0.00;0.00;;;21.10;62.70;;;;;;5042594;28;20039;-76
2023/05/08 09:26:50;;;;;;;0.00;0.00;;;21.80;64.30;;;;;;5048550;28;20021;-75
2023/05/08 09:29:21;;;;;;;0.00;0.00;;;23.10;61.60;;;;;;5049479;28;20024;-75
2023/05/08 09:31:51;;;;;;;0.00;0.00;;;23.10;60.70;;;;;;5043128;28;20071;-75
2023/05/08 09:34:32;;;;;;;0.00;0.00;;;23.50;59.30;;;;;;5052037;28;20507;-75
2023/05/08 09:37:18;;;;;;;0.00;0.00;;;23.20;59.70;;;;;;5061395;28;20077;-75
2023/05/08 09:39:48;;;;;;;0.00;0.00;;;23.10;60.70;;;;;;5047317;28;20171;-75
2023/05/08 09:42:14;;;;;;;0.10;0.00;;;22.50;59.60;;;;;;5056780;28;20032;-77
2023/05/08 09:44:54;;;;;;;0.00;0.00;;;22.70;60.10;;;;;;5064332;28;20021;-75
2023/05/08 09:47:24;;;;;;;0.00;0.00;;;23.30;60.00;;;;;;5063707;28;20032;-77
2023/05/08 09:50:07;;;;;;;0.00;0.00;;;23.80;59.40;;;;;;5070028;28;20019;-75
2023/05/08 09:52:45;;;;;;;0.03;0.03;;;25.80;57.10;;;;;;5055690;28;20028;-75
2023/05/08 09:55:13;;;;;;;0.00;0.00;;;26.60;54.90;;;;;;5045341;28;20112;-74
2023/05/08 09:57:53;;;;;;;0.00;0.00;;;26.10;55.00;;;;;;5044495;28;20026;-75
2023/05/08 10:00:20;;;;;;;0.00;0.00;;;27.10;54.60;;;;;;5051499;28;20016;-83
2023/05/08 10:03:01;;;;;;;0.00;0.00;;;28.70;52.70;;;;;;5042784;28;20027;-85
2023/05/08 10:05:35;;;;;;;0.10;0.10;;;27.50;52.70;;;;;;5041530;28;20092;-83
2023/05/08 10:08:25;;;;;;;0.30;0.05;;;24.10;56.70;;;;;;5067953;28;20143;-86
2023/05/08 10:11:14;;;;;;;0.05;0.05;;;23.60;57.80;;;;;;5046432;28;20021;-86
2023/05/08 10:13:49;;;;;;;0.00;0.00;;;24.10;57.60;;;;;;5049339;28;20028;-83
2023/05/08 10:16:17;;;;;;;0.00;0.00;;;26.00;54.50;;;;;;5055291;28;20021;-83
2023/05/08 10:18:47;;;;;;;0.00;0.00;;;25.90;55.10;;;;;;5050648;28;20036;-84
2023/05/08 10:21:14;;;;;;;0.00;0.00;;;25.40;55.00;;;;;;5060809;28;20048;-82
2023/05/08 10:23:42;;;;;;;0.00;0.00;;;24.90;55.20;;;;;;5051514;28;20024;-83
2023/05/08 10:26:17;;;;;;;0.00;0.00;;;25.70;55.10;;;;;;5049908;28;20514;-87
2023/05/08 10:29:00;;;;;;;0.00;0.00;;;24.30;56.40;;;;;;5063832;28;20075;-84
2023/05/08 10:31:33;;;;;;;0.00;0.00;;;23.30;57.30;;;;;;5048698;28;20020;-84
2023/05/08 10:34:01;;;;;;;0.00;0.00;;;24.80;57.00;;;;;;5042318;28;20028;-83
2023/05/08 10:36:28;;;;;;;0.00;0.00;;;25.60;56.00;;;;;;5051153;28;20027;-85
2023/05/08 10:38:57;;;;;;;0.00;0.00;;;25.60;54.60;;;;;;5046652;28;20154;-84
2023/05/08 10:41:26;;;;;;;0.00;0.00;;;25.00;55.10;;;;;;5055463;28;20111;-83
2023/05/08 10:43:54;;;;;;;0.00;0.00;;;23.10;57.10;;;;;;5049802;28;20044;-87
2023/05/08 10:47:15;;;;;;;0.00;0.00;;;21.40;60.40;;;;;;5048871;28;20051;-88
2023/05/08 10:50:03;;;;;;;0.00;0.00;;;21.30;61.90;;;;;;4973083;28;20052;-85
2023/05/08 10:53:00;;;;;;;0.03;0.03;;;23.90;58.30;;;;;;5053346;28;20217;-85
2023/05/08 10:55:32;;;;;;;;;;;24.00;56.90;;;;;;5038033;28;20060;-83
2023/05/08 10:58:15;;;;;;;0.22;0.22;;;23.60;57.60;;;;;;5049239;28;19905;-84
2023/05/08 11:01:02;;;;;;;0.00;0.00;;;22.40;59.00;;;;;;5044630;28;20021;-89
2023/05/08 11:03:29;;;;;;;0.00;0.00;;;20.60;62.10;;;;;;5050276;28;20803;-78
2023/05/08 11:05:59;;;;;;;0.00;0.00;;;20.10;62.90;;;;;;5052944;28;20032;-74
2023/05/08 11:08:27;;;;;;;0.00;0.00;;;20.10;62.80;;;;;;5048223;28;20020;-74
2023/05/08 11:10:59;;;;;;;0.00;0.00;;;19.40;65.20;;;;;;5045680;28;20811;-74
2023/05/08 11:13:32;;;;;;;0.00;0.00;;;19.50;64.50;;;;;;5056579;28;20162;-75
2023/05/08 11:15:59;;;;;;;0.00;0.00;;;19.10;65.70;;;;;;5043703;28;20029;-75
2023/05/08 11:18:26;;;;;;;0.00;0.00;;;19.40;65.70;;;;;;5045456;28;20020;-74
2023/05/08 11:20:58;;;;;;;0.10;0.05;;;18.80;66.30;;;;;;5043804;28;20028;-73
2023/05/08 11:26:18;;;;;;;0.00;0.00;;;18.30;68.30;;;;;;5486831;22;20045;-81
2023/05/08 11:29:14;;;;;;;0.00;0.00;;;17.00;69.00;;;;;;5079690;28;20036;-84
2023/05/08 11:31:52;;;;;;;0.08;0.08;;;18.00;69.70;;;;;;5074043;28;20028;-84
2023/05/08 11:37:08;;;;;;;0.00;0.00;;;17.70;69.80;;;;;;5056292;28;19921;-80
2023/05/08 11:39:39;;;;;;;0.00;0.00;;;17.70;71.80;;;;;;5083167;28;20040;-81
2023/05/08 11:45:39;;;;;;;0.00;0.00;;;18.20;70.90;;;;;;5051346;28;20029;-84
2023/05/08 11:48:15;;;;;;;0.32;0.32;;;18.20;69.90;;;;;;5059604;28;20021;-84
2023/05/08 11:50:58;;;;;;;0.00;0.00;;;18.10;70.10;;;;;;5049282;28;20032;-85
2023/05/08 11:53:32;;;;;;;0.00;0.00;;;17.60;70.60;;;;;;5051315;28;20115;-83
2023/05/08 11:56:04;;;;;;;0.00;0.00;;;17.90;72.30;;;;;;5052855;28;20021;-83
2023/05/08 11:58:35;;;;;;;0.00;0.00;;;18.10;71.50;;;;;;5035132;28;20045;-86
2023/05/08 12:01:41;;;;;;;0.13;0.10;;;19.00;69.50;;;;;;5029717;28;20025;-87
2023/05/08 12:04:14;;;;;;;0.00;0.00;;;19.60;68.40;;;;;;5022660;28;20026;-87
2023/05/08 12:07:22;;;;;;;0.00;0.00;;;19.70;67.50;;;;;;5028688;28;20476;-88
2023/05/08 12:09:52;;;;;;;;;;;19.70;66.00;;;;;;5045036;28;20026;-89
2023/05/08 12:12:47;;;;;;;0.00;0.00;;;19.50;66.90;;;;;;5043314;28;19915;-88
2023/05/08 12:15:21;;;;;;;0.10;0.10;;;19.50;67.70;;;;;;5017166;28;20120;-92
2023/05/08 12:17:47;;;;;;;0.00;0.00;;;19.60;67.40;;;;;;5027989;28;20036;-79
2023/05/08 12:20:19;;;;;;;0.00;0.00;;;19.80;67.70;;;;;;5028192;28;20037;-78
2023/05/08 12:22:53;;;;;;;0.00;0.00;;;18.60;69.00;;;;;;5049232;28;20021;-84
2023/05/08 12:25:50;;;;;;;0.00;0.00;;;18.40;70.50;;;;;;5061556;28;20041;-85
2023/05/08 12:28:31;;;;;;;0.00;0.00;;;18.40;70.40;;;;;;5045753;28;20486;-88
2023/05/08 12:30:58;;;;;;;0.03;0.03;;;18.90;68.10;;;;;;5040735;28;20079;-84
2023/05/08 12:33:24;;;;;;;0.00;0.00;;;18.60;69.00;;;;;;5032253;28;20032;-87
2023/05/08 12:35:52;;;;;;;0.00;0.00;;;18.70;69.40;;;;;;5033694;28;20441;-89
2023/05/08 12:38:31;;;;;;;0.00;0.00;;;19.20;69.50;;;;;;5027803;28;20645;-91
2023/05/08 12:41:13;;;;;;;0.00;0.00;;;19.50;68.70;;;;;;5029072;28;20503;-88
2023/05/08 12:43:39;;;;;;;0.00;0.00;;;19.70;67.60;;;;;;5047853;28;20025;-85
2023/05/08 12:46:13;;;;;;;0.00;0.00;;;19.30;67.40;;;;;;5063915;28;20025;-84
2023/05/08 12:48:39;;;;;;;0.00;0.00;;;18.50;71.50;;;;;;5043779;28;20071;-78
2023/05/08 12:51:06;;;;;;;0.00;0.00;;;18.60;70.50;;;;;;5033017;28;20021;-78
2023/05/08 12:53:39;;;;;;;0.00;0.00;;;17.90;69.90;;;;;;5023837;28;20064;-79
2023/05/08 12:56:06;;;;;;;0.00;0.00;;;18.00;70.40;;;;;;5030217;28;20032;-78
2023/05/08 12:58:34;;;;;;;0.00;0.00;;;18.10;70.80;;;;;;5030476;28;20032;-79
2023/05/08 13:01:12;;;;;;;0.00;0.00;;;18.10;70.20;;;;;;5025544;28;20029;-79
2023/05/08 13:03:38;;;;;;;0.00;0.00;;;18.30;69.40;;;;;;5029629;28;20095;-79
2023/05/08 13:06:06;;;;;;;0.00;0.00;;;18.40;69.70;;;;;;5039229;28;20493;-79
2023/05/08 13:08:37;;;;;;;0.00;0.00;;;18.70;69.10;;;;;;5035177;28;20032;-78
2023/05/08 13:11:09;;;;;;;0.00;0.00;;;18.90;67.30;;;;;;5040682;28;20017;-79
2023/05/08 13:13:36;;;;;;;0.00;0.00;;;19.00;68.50;;;;;;5032534;28;20479;-78
2023/05/08 13:16:03;;;;;;;0.05;0.05;;;19.20;69.00;;;;;;5036139;28;20745;-78
2023/05/08 13:18:32;;;;;;;0.00;0.00;;;19.00;68.70;;;;;;5036461;28;20022;-79
2023/05/08 13:20:58;;;;;;;0.00;0.00;;;19.20;68.00;;;;;;5024317;28;20037;-79
2023/05/08 13:23:27;;;;;;;;;;;19.30;67.10;;;;;;5034901;28;20022;-79
2023/05/08 13:25:52;;;;;;;0.00;0.00;;;19.30;66.10;;;;;;5034635;28;19908;-79
2023/05/08 13:28:20;;;;;;;0.00;0.00;;;19.10;66.70;;;;;;5054052;28;21287;-79
2023/05/08 13:30:49;;;;;;;0.00;0.00;;;19.20;66.30;;;;;;5029837;28;20029;-78
2023/05/08 13:33:21;;;;;;;0.00;0.00;;;19.00;67.60;;;;;;5032705;28;20555;-79